首页
METAR-TAF:

METAR-TAF

机场 :

新加坡樟宜机场

新加坡, 新加坡

纬度: 01-22N, 经度: 103-59E, 海拔: 5米

当前天气观测

该预报发布于22分钟前的12:00 UTC
风速8节,风向东北,在西北东转东北之间变化
温度 28°C
湿度 74%
气压 1010 hPa
能见度10公里或以上
少量云层高于1800英尺
多云层高于30000英尺

METAR: WSSS 231200Z 04008KT 320V070 9999 FEW018 BKN300 28/23 Q1010 NOSIG

时间: 20:22 (12:22 UTC)

预报

该预报发布于1小时和22分钟前的11:00 UTC
预报有效从23日的 12点(UTC)到 24日的 18点(UTC)
风速7节,风向北转东北
能见度10公里或以上
散云层高于2000英尺

TAF: WSSS 231100Z 2312/2418 03007KT 9999 SCT020

超过4000个机场的气象观测和天气预报(METAR&TAF报告)。

可查询的气象台以黄色和红色小点在地图上表示。

将鼠标移到小点上方,可查看气象台名称。

然后点击查看天气观测和预报。

如需切换地图:点击带黑十字的绿色按钮放大地图;点击带横线的绿色按钮缩小地图;或者点击绿色箭头查看邻近地区的地图。


METAR-TAF: